createdAt,value
2019-05-30T00:00:44.780Z,14.60
2019-05-30T00:03:13.048Z,14.50
2019-05-30T00:05:41.298Z,14.50
2019-05-30T00:08:09.579Z,14.40
2019-05-30T00:10:37.924Z,14.40
2019-05-30T00:13:06.172Z,14.40
2019-05-30T00:15:34.447Z,14.30
2019-05-30T00:18:02.960Z,14.30
2019-05-30T00:20:31.694Z,14.10
2019-05-30T00:23:01.007Z,14.10
2019-05-30T00:25:29.606Z,14.10
2019-05-30T00:27:58.974Z,14.20
2019-05-30T00:30:27.651Z,14.10
2019-05-30T00:32:57.203Z,14.20
2019-05-30T00:35:25.949Z,14.20
2019-05-30T00:37:55.575Z,14.20
2019-05-30T00:40:23.876Z,14.20
2019-05-30T00:42:52.129Z,14.20
2019-05-30T00:45:21.509Z,14.20
2019-05-30T00:47:50.012Z,14.10
2019-05-30T00:50:18.280Z,14.10
2019-05-30T00:52:46.804Z,14.10
2019-05-30T00:55:15.065Z,14.10
2019-05-30T00:57:43.316Z,14.10
2019-05-30T01:00:11.596Z,14.10
2019-05-30T01:02:39.867Z,14.20
2019-05-30T01:05:08.693Z,14.20
2019-05-30T01:07:36.986Z,14.20
2019-05-30T01:10:08.336Z,14.10
2019-05-30T01:12:36.662Z,14.10
2019-05-30T01:15:07.832Z,14.20
2019-05-30T01:17:36.390Z,14.30
2019-05-30T01:20:05.684Z,14.20
2019-05-30T01:22:33.977Z,14.20
2019-05-30T01:25:04.068Z,14.20
2019-05-30T01:27:32.233Z,14.30
2019-05-30T01:30:01.630Z,14.20
2019-05-30T01:32:30.529Z,14.20
2019-05-30T01:34:59.885Z,14.10
2019-05-30T01:37:28.310Z,14.20
2019-05-30T01:39:57.704Z,14.30
2019-05-30T01:42:26.082Z,14.20
2019-05-30T01:44:54.468Z,14.30
2019-05-30T01:47:22.727Z,14.30
2019-05-30T01:49:50.983Z,14.30
2019-05-30T01:52:19.277Z,14.30
2019-05-30T01:54:47.546Z,14.30
2019-05-30T01:57:15.809Z,14.30
2019-05-30T01:59:44.098Z,14.20
2019-05-30T02:02:12.361Z,14.20
2019-05-30T02:04:40.620Z,14.30
2019-05-30T02:07:09.377Z,14.30
2019-05-30T02:09:37.853Z,14.30
2019-05-30T02:12:06.111Z,14.20
2019-05-30T02:14:34.396Z,14.30
2019-05-30T02:17:03.688Z,14.30
2019-05-30T02:19:32.276Z,14.30
2019-05-30T02:22:01.633Z,14.30
2019-05-30T02:24:30.287Z,14.30
2019-05-30T02:27:00.008Z,14.30
2019-05-30T02:29:28.568Z,14.30
2019-05-30T02:31:56.832Z,14.30
2019-05-30T02:34:25.092Z,14.20
2019-05-30T02:36:53.366Z,14.30
2019-05-30T02:39:21.637Z,14.30
2019-05-30T02:41:49.897Z,14.30
2019-05-30T02:44:18.468Z,14.20
2019-05-30T02:46:46.721Z,14.30
2019-05-30T02:49:15.085Z,14.20
2019-05-30T02:51:43.423Z,14.20
2019-05-30T02:54:13.212Z,14.30
2019-05-30T02:56:41.717Z,14.30
2019-05-30T02:59:11.529Z,14.30
2019-05-30T03:01:58.932Z,14.30
2019-05-30T03:04:10.949Z,14.30
2019-05-30T03:06:39.968Z,14.30
2019-05-30T03:09:09.075Z,14.30
2019-05-30T03:11:38.301Z,14.30
2019-05-30T03:14:08.844Z,14.30
2019-05-30T03:16:36.589Z,14.30
2019-05-30T03:19:06.283Z,14.30
2019-05-30T03:21:35.017Z,14.30
2019-05-30T03:24:05.151Z,14.30
2019-05-30T03:26:33.693Z,14.30
2019-05-30T03:29:02.692Z,14.30
2019-05-30T03:31:31.371Z,14.30
2019-05-30T03:33:59.730Z,14.30
2019-05-30T03:36:31.163Z,14.30
2019-05-30T03:38:58.201Z,14.30
2019-05-30T03:41:26.459Z,14.30
2019-05-30T03:43:55.021Z,14.30
2019-05-30T03:46:26.276Z,14.30
2019-05-30T03:48:54.611Z,14.30
2019-05-30T03:51:22.894Z,14.40
2019-05-30T03:53:51.236Z,14.30
2019-05-30T03:56:34.499Z,14.30
2019-05-30T03:59:10.390Z,14.30
2019-05-30T04:01:44.937Z,14.30
2019-05-30T04:04:31.233Z,14.30
2019-05-30T04:07:02.736Z,14.30
2019-05-30T04:09:31.719Z,14.40
2019-05-30T04:12:10.671Z,14.40
2019-05-30T04:14:41.399Z,14.40
2019-05-30T04:17:11.143Z,14.40
2019-05-30T04:19:39.656Z,14.40
2019-05-30T04:22:09.329Z,14.40
2019-05-30T04:24:37.979Z,14.40
2019-05-30T04:27:07.795Z,14.40
2019-05-30T04:29:36.248Z,14.40
2019-05-30T04:32:04.509Z,14.40
2019-05-30T04:34:32.793Z,14.50
2019-05-30T04:37:01.065Z,14.50
2019-05-30T04:39:29.338Z,14.50
2019-05-30T04:41:57.692Z,14.50
2019-05-30T04:44:26.281Z,14.50
2019-05-30T04:46:54.544Z,14.50
2019-05-30T04:49:22.837Z,14.50
2019-05-30T04:51:51.096Z,14.50
2019-05-30T04:54:21.192Z,14.50
2019-05-30T04:56:49.701Z,14.50
2019-05-30T04:59:19.814Z,14.50
2019-05-30T05:01:47.959Z,14.60
2019-05-30T05:04:17.734Z,14.50
2019-05-30T05:06:46.220Z,14.50
2019-05-30T05:09:15.865Z,14.50
2019-05-30T05:11:44.437Z,14.60
2019-05-30T05:14:14.209Z,14.50
2019-05-30T05:16:42.728Z,14.50
2019-05-30T05:19:11.023Z,14.60
2019-05-30T05:21:39.363Z,14.50
2019-05-30T05:24:07.697Z,14.60
2019-05-30T05:26:36.064Z,14.60
2019-05-30T05:29:04.330Z,14.50
2019-05-30T05:31:32.588Z,14.60
2019-05-30T05:34:00.867Z,14.60
2019-05-30T05:36:29.123Z,14.60
2019-05-30T05:38:57.467Z,14.60
2019-05-30T05:41:25.824Z,14.70
2019-05-30T05:43:54.083Z,14.60
2019-05-30T05:46:22.606Z,14.70
2019-05-30T05:48:51.008Z,14.70
2019-05-30T05:51:20.621Z,14.70
2019-05-30T05:53:49.320Z,14.70
2019-05-30T05:56:18.732Z,14.80
2019-05-30T05:58:47.388Z,14.80
2019-05-30T06:01:17.119Z,14.80
2019-05-30T06:03:45.655Z,14.80
2019-05-30T06:06:13.913Z,14.70
2019-05-30T06:08:42.175Z,14.70
2019-05-30T06:11:10.535Z,14.70
2019-05-30T06:13:38.895Z,14.80
2019-05-30T06:16:07.155Z,14.80
2019-05-30T06:18:35.449Z,14.90
2019-05-30T06:21:03.708Z,14.80
2019-05-30T06:23:31.969Z,14.90
2019-05-30T06:26:00.241Z,14.90
2019-05-30T06:28:28.505Z,14.90
2019-05-30T06:30:59.055Z,14.90
2019-05-30T06:33:27.153Z,15.00
2019-05-30T06:35:55.728Z,15.00
2019-05-30T06:38:25.192Z,14.90
2019-05-30T06:40:53.748Z,15.00
2019-05-30T06:43:24.403Z,15.00
2019-05-30T06:45:53.013Z,15.00
2019-05-30T06:48:22.487Z,15.00
2019-05-30T06:50:50.933Z,15.00
2019-05-30T06:53:19.188Z,15.00
2019-05-30T06:55:47.463Z,15.00
2019-05-30T06:58:15.729Z,15.00
2019-05-30T07:00:44.313Z,15.00
2019-05-30T07:03:12.649Z,15.00
2019-05-30T07:05:41.318Z,15.00
2019-05-30T07:08:10.256Z,15.00
2019-05-30T07:10:38.539Z,15.00
2019-05-30T07:13:06.815Z,15.00
2019-05-30T07:15:35.076Z,15.00
2019-05-30T07:18:03.352Z,15.10
2019-05-30T07:20:31.741Z,15.10
2019-05-30T07:23:00.052Z,15.10
2019-05-30T07:25:28.330Z,15.10
2019-05-30T07:27:56.599Z,15.10
2019-05-30T07:30:25.842Z,15.00
2019-05-30T07:32:54.336Z,15.00
2019-05-30T07:35:23.845Z,15.10
2019-05-30T07:37:52.292Z,15.00
2019-05-30T07:40:20.678Z,15.10
2019-05-30T07:42:49.012Z,15.10
2019-05-30T07:45:17.265Z,15.10
2019-05-30T07:47:45.644Z,15.20
2019-05-30T07:50:13.913Z,15.20
2019-05-30T07:52:42.264Z,15.20
2019-05-30T07:55:10.692Z,15.20
2019-05-30T07:57:41.487Z,15.20
2019-05-30T08:00:11.550Z,15.20
2019-05-30T08:02:39.824Z,15.20
2019-05-30T08:05:22.867Z,15.20
2019-05-30T08:07:39.048Z,15.20
2019-05-30T08:10:08.209Z,15.20
2019-05-30T08:12:36.496Z,15.30
2019-05-30T08:15:06.389Z,15.30
2019-05-30T08:17:35.687Z,15.30
2019-05-30T08:20:06.208Z,15.30
2019-05-30T08:22:34.480Z,15.30
2019-05-30T08:25:03.332Z,15.30
2019-05-30T08:27:32.371Z,15.30
2019-05-30T08:30:00.832Z,15.30
2019-05-30T08:32:30.467Z,15.40
2019-05-30T08:34:58.851Z,15.40
2019-05-30T08:37:27.192Z,15.40
2019-05-30T08:39:55.479Z,15.40
2019-05-30T08:42:23.755Z,15.40
2019-05-30T08:44:52.005Z,15.50
2019-05-30T08:47:20.292Z,15.50
2019-05-30T08:49:48.657Z,15.50
2019-05-30T08:52:16.991Z,15.50
2019-05-30T08:54:45.268Z,15.50
2019-05-30T08:57:13.604Z,15.50
2019-05-30T08:59:44.866Z,15.60
2019-05-30T09:02:12.881Z,15.60
2019-05-30T09:04:41.999Z,15.60
2019-05-30T09:07:10.592Z,15.60
2019-05-30T09:09:40.065Z,15.60
2019-05-30T09:12:08.503Z,15.70
2019-05-30T09:14:37.882Z,15.70
2019-05-30T09:17:06.771Z,15.80
2019-05-30T09:19:35.036Z,15.70
2019-05-30T09:22:03.301Z,15.80
2019-05-30T09:24:31.588Z,15.80
2019-05-30T09:26:59.854Z,15.90
2019-05-30T09:29:28.179Z,15.90
2019-05-30T09:31:56.477Z,15.90
2019-05-30T09:34:24.828Z,15.90
2019-05-30T09:36:53.169Z,15.90
2019-05-30T09:39:21.445Z,16.00
2019-05-30T09:41:49.888Z,16.00
2019-05-30T09:44:18.348Z,16.00
2019-05-30T09:46:46.998Z,16.00
2019-05-30T09:49:16.059Z,16.00
2019-05-30T09:51:45.222Z,16.00
2019-05-30T09:54:13.768Z,16.10
2019-05-30T09:56:43.287Z,16.10
2019-05-30T09:59:12.076Z,16.10
2019-05-30T10:01:42.623Z,16.20
2019-05-30T10:04:10.335Z,16.10
2019-05-30T10:06:38.596Z,16.20
2019-05-30T10:09:09.012Z,16.20
2019-05-30T10:11:37.273Z,16.10
2019-05-30T10:14:05.547Z,16.20
2019-05-30T10:16:33.824Z,16.10
2019-05-30T10:19:02.080Z,16.10
2019-05-30T10:21:30.348Z,16.20
2019-05-30T10:23:58.624Z,16.20
2019-05-30T10:26:26.886Z,16.30
2019-05-30T10:28:55.144Z,16.20
2019-05-30T10:31:23.419Z,16.20
2019-05-30T10:33:52.899Z,16.20
2019-05-30T10:36:21.421Z,16.30
2019-05-30T10:38:50.468Z,16.30
2019-05-30T10:41:19.420Z,16.30
2019-05-30T10:43:48.970Z,16.30
2019-05-30T10:46:17.752Z,16.30
2019-05-30T10:48:49.015Z,16.30
2019-05-30T10:51:16.360Z,16.30
2019-05-30T10:53:45.450Z,16.40
2019-05-30T10:56:14.634Z,16.40
2019-05-30T10:58:42.972Z,16.40
2019-05-30T11:01:12.399Z,16.40
2019-05-30T11:03:40.679Z,16.50
2019-05-30T11:06:18.305Z,16.40
2019-05-30T11:08:47.951Z,16.40
2019-05-30T11:11:16.560Z,16.50
2019-05-30T11:13:45.169Z,16.50
2019-05-30T11:16:13.432Z,16.60
2019-05-30T11:18:41.693Z,16.60
2019-05-30T11:21:09.984Z,16.80
2019-05-30T11:23:38.236Z,16.90
2019-05-30T11:26:06.497Z,17.20
2019-05-30T11:28:34.776Z,17.30
2019-05-30T11:31:04.745Z,17.50
2019-05-30T11:33:33.024Z,17.50
2019-05-30T11:36:01.324Z,17.40
2019-05-30T11:38:29.709Z,17.40
2019-05-30T11:40:57.975Z,17.40
2019-05-30T11:43:26.256Z,17.40
2019-05-30T11:45:55.872Z,17.40
2019-05-30T11:48:24.360Z,17.70
2019-05-30T11:50:53.719Z,17.90
2019-05-30T11:53:22.337Z,17.80
2019-05-30T11:55:52.149Z,17.60
2019-05-30T11:58:20.658Z,17.70
2019-05-30T12:00:50.076Z,18.00
2019-05-30T12:03:18.763Z,18.40
2019-05-30T12:05:47.166Z,18.80
2019-05-30T12:08:15.426Z,19.00
2019-05-30T12:10:43.691Z,18.70
2019-05-30T12:13:11.972Z,18.80
2019-05-30T12:15:40.235Z,18.80
2019-05-30T12:18:08.873Z,18.90
2019-05-30T12:20:40.370Z,19.10
2019-05-30T12:23:08.648Z,19.10
2019-05-30T12:25:36.921Z,19.40
2019-05-30T12:28:05.265Z,19.50
2019-05-30T12:30:33.574Z,19.40
2019-05-30T12:33:02.595Z,19.60
2019-05-30T12:35:31.369Z,19.70
2019-05-30T12:38:03.304Z,19.50
2019-05-30T12:40:29.619Z,19.60
2019-05-30T12:42:59.860Z,19.50
2019-05-30T12:45:27.880Z,19.40
2019-05-30T12:47:57.084Z,19.30
2019-05-30T12:50:25.503Z,19.30
2019-05-30T12:52:53.768Z,19.40
2019-05-30T12:55:22.048Z,19.70
2019-05-30T12:57:50.342Z,20.00
2019-05-30T13:00:24.755Z,20.10
2019-05-30T13:02:53.103Z,20.20
2019-05-30T13:05:21.379Z,20.00
2019-05-30T13:07:49.656Z,19.90
2019-05-30T13:10:18.501Z,20.00
2019-05-30T13:12:47.116Z,20.00
2019-05-30T13:15:16.188Z,20.10
2019-05-30T13:17:44.548Z,20.30
2019-05-30T13:20:12.833Z,20.40
2019-05-30T13:22:41.098Z,20.30
2019-05-30T13:25:10.657Z,20.30
2019-05-30T13:27:38.940Z,20.30
2019-05-30T13:30:07.337Z,20.50
2019-05-30T13:32:35.614Z,20.70
2019-05-30T13:35:05.507Z,20.80
2019-05-30T13:37:33.752Z,21.00
2019-05-30T13:40:23.379Z,21.10
2019-05-30T13:42:37.925Z,21.10
2019-05-30T13:45:08.331Z,21.00
2019-05-30T13:47:37.407Z,20.80
2019-05-30T13:50:13.500Z,20.90
2019-05-30T13:52:39.890Z,20.90
2019-05-30T13:55:08.896Z,20.90
2019-05-30T13:57:38.192Z,21.00
2019-05-30T14:00:10.747Z,20.90
2019-05-30T14:02:39.201Z,20.90
2019-05-30T14:05:08.297Z,20.90
2019-05-30T14:07:36.897Z,20.90
2019-05-30T14:10:08.562Z,20.70
2019-05-30T14:12:37.113Z,20.60
2019-05-30T14:15:10.410Z,20.50
2019-05-30T14:17:37.662Z,20.40
2019-05-30T14:20:07.042Z,20.40
2019-05-30T14:22:35.448Z,20.40
2019-05-30T14:25:05.067Z,20.30
2019-05-30T14:27:33.831Z,20.40
2019-05-30T14:30:03.100Z,20.40
2019-05-30T14:32:33.099Z,20.20
2019-05-30T14:35:02.358Z,20.20
2019-05-30T14:37:35.807Z,20.20
2019-05-30T14:40:13.946Z,20.30
2019-05-30T14:42:42.777Z,20.30
2019-05-30T14:45:12.573Z,20.20
2019-05-30T14:47:41.145Z,20.20
2019-05-30T14:50:11.020Z,20.20
2019-05-30T14:52:39.693Z,20.30
2019-05-30T14:55:09.048Z,20.30
2019-05-30T14:57:37.709Z,20.20
2019-05-30T15:00:09.156Z,20.30
2019-05-30T15:02:37.769Z,20.30
2019-05-30T15:05:07.331Z,20.20
2019-05-30T15:07:36.095Z,20.40
2019-05-30T15:10:06.764Z,20.20
2019-05-30T15:12:35.070Z,20.20
2019-05-30T15:15:03.442Z,20.10
2019-05-30T15:17:31.797Z,20.10
2019-05-30T15:20:00.062Z,20.10
2019-05-30T15:22:28.344Z,20.10
2019-05-30T15:24:58.105Z,20.10
2019-05-30T15:27:26.453Z,20.10
2019-05-30T15:29:54.811Z,20.00
2019-05-30T15:32:23.092Z,20.00
2019-05-30T15:34:51.351Z,20.00
2019-05-30T15:37:19.691Z,20.00
2019-05-30T15:39:47.983Z,19.90
2019-05-30T15:42:17.553Z,19.90
2019-05-30T15:44:46.087Z,19.90
2019-05-30T15:47:14.578Z,19.90
2019-05-30T15:49:43.154Z,19.80
2019-05-30T15:52:12.944Z,19.80
2019-05-30T15:54:41.613Z,19.80
2019-05-30T15:57:11.118Z,19.70
2019-05-30T15:59:39.751Z,19.80
2019-05-30T16:02:08.021Z,19.70
2019-05-30T16:04:36.385Z,19.70
2019-05-30T16:07:06.571Z,19.60
2019-05-30T16:09:46.771Z,19.60
2019-05-30T16:12:07.464Z,19.60
2019-05-30T16:14:35.725Z,19.50
2019-05-30T16:17:03.996Z,19.50
2019-05-30T16:19:32.266Z,19.50
2019-05-30T16:22:02.256Z,19.40
2019-05-30T16:24:31.444Z,19.30
2019-05-30T16:27:01.370Z,19.30
2019-05-30T16:29:29.697Z,19.30
2019-05-30T16:31:57.983Z,19.30
2019-05-30T16:34:27.517Z,19.30
2019-05-30T16:36:55.778Z,19.30
2019-05-30T16:39:26.555Z,19.30
2019-05-30T16:41:54.936Z,19.30
2019-05-30T16:44:23.186Z,19.30
2019-05-30T16:46:53.110Z,19.30
2019-05-30T16:49:21.389Z,19.40
2019-05-30T16:51:49.730Z,19.40
2019-05-30T16:54:19.257Z,19.40
2019-05-30T16:56:49.985Z,19.40
2019-05-30T16:59:18.611Z,19.40
2019-05-30T17:01:56.757Z,19.30
2019-05-30T17:04:17.007Z,19.30
2019-05-30T17:06:45.394Z,19.20
2019-05-30T17:09:15.079Z,19.10
2019-05-30T17:11:43.846Z,19.10
2019-05-30T17:14:17.540Z,19.10
2019-05-30T17:16:45.871Z,19.10
2019-05-30T17:19:14.143Z,19.00
2019-05-30T17:21:42.509Z,19.00
2019-05-30T17:24:10.880Z,19.00
2019-05-30T17:26:39.148Z,19.00
2019-05-30T17:29:07.409Z,19.00
2019-05-30T17:31:35.761Z,19.00
2019-05-30T17:34:04.188Z,19.00
2019-05-30T17:36:32.446Z,19.00
2019-05-30T17:39:00.725Z,18.90
2019-05-30T17:41:29.072Z,18.80
2019-05-30T17:43:57.328Z,18.80
2019-05-30T17:46:25.759Z,18.80
2019-05-30T17:48:54.053Z,18.80
2019-05-30T17:51:22.308Z,18.80
2019-05-30T17:53:52.228Z,18.70
2019-05-30T17:56:21.935Z,18.80
2019-05-30T17:58:50.335Z,18.70
2019-05-30T18:01:18.624Z,18.70
2019-05-30T18:03:46.948Z,18.70
2019-05-30T18:06:15.205Z,18.70
2019-05-30T18:08:43.487Z,18.70
2019-05-30T18:11:11.756Z,18.60
2019-05-30T18:13:40.086Z,18.60
2019-05-30T18:16:08.361Z,18.60
2019-05-30T18:18:36.617Z,18.50
2019-05-30T18:21:04.880Z,18.50
2019-05-30T18:23:33.166Z,18.50
2019-05-30T18:26:01.412Z,18.50
2019-05-30T18:28:29.878Z,18.50
2019-05-30T18:30:58.247Z,18.60
2019-05-30T18:33:26.524Z,18.50
2019-05-30T18:35:54.783Z,18.50
2019-05-30T18:38:24.186Z,18.50
2019-05-30T18:40:52.505Z,18.50
2019-05-30T18:43:20.767Z,18.50
2019-05-30T18:45:49.051Z,18.50
2019-05-30T18:48:17.428Z,18.50
2019-05-30T18:50:45.697Z,18.50
2019-05-30T18:53:13.973Z,18.40
2019-05-30T18:55:42.231Z,18.40
2019-05-30T18:58:10.496Z,18.40
2019-05-30T19:00:38.867Z,18.40
2019-05-30T19:03:07.388Z,18.40
2019-05-30T19:05:36.846Z,18.40
2019-05-30T19:08:05.364Z,18.40
2019-05-30T19:10:34.285Z,18.40
2019-05-30T19:13:02.657Z,18.40
2019-05-30T19:15:32.749Z,18.40
2019-05-30T19:18:01.099Z,18.40
2019-05-30T19:20:29.704Z,18.40
2019-05-30T19:22:58.063Z,18.40
2019-05-30T19:25:27.180Z,18.40
2019-05-30T19:27:55.584Z,18.30
2019-05-30T19:30:23.867Z,18.40
2019-05-30T19:32:52.139Z,18.40
2019-05-30T19:35:20.707Z,18.40
2019-05-30T19:37:48.985Z,18.40
2019-05-30T19:40:17.254Z,18.30
2019-05-30T19:42:45.568Z,18.30
2019-05-30T19:45:13.836Z,18.30
2019-05-30T19:47:42.089Z,18.30
2019-05-30T19:50:10.431Z,18.30
2019-05-30T19:52:39.206Z,18.30
2019-05-30T19:55:07.545Z,18.20
2019-05-30T19:57:35.800Z,18.20
2019-05-30T20:00:09.197Z,18.20
2019-05-30T20:02:38.336Z,18.20
2019-05-30T20:05:07.483Z,18.20
2019-05-30T20:07:36.697Z,18.20
2019-05-30T20:10:07.993Z,18.20
2019-05-30T20:12:37.056Z,18.20
2019-05-30T20:15:09.717Z,18.20
2019-05-30T20:17:38.061Z,18.20
2019-05-30T20:20:06.551Z,18.20
2019-05-30T20:22:35.933Z,18.20
2019-05-30T20:25:06.164Z,18.20
2019-05-30T20:27:34.692Z,18.20
2019-05-30T20:30:03.666Z,18.20
2019-05-30T20:32:31.919Z,18.20
2019-05-30T20:35:00.171Z,18.20
2019-05-30T20:37:28.448Z,18.20
2019-05-30T20:39:56.712Z,18.20
2019-05-30T20:42:24.968Z,18.20
2019-05-30T20:44:53.248Z,18.20
2019-05-30T20:47:21.508Z,18.10
2019-05-30T20:49:49.841Z,18.10
2019-05-30T20:52:18.126Z,18.10
2019-05-30T20:54:46.399Z,18.10
2019-05-30T20:57:14.649Z,18.10
2019-05-30T20:59:42.925Z,18.10
2019-05-30T21:02:11.268Z,18.10
2019-05-30T21:04:40.832Z,18.10
2019-05-30T21:07:09.270Z,18.10
2019-05-30T21:09:37.772Z,18.10
2019-05-30T21:12:06.076Z,18.10
2019-05-30T21:14:35.489Z,18.10
2019-05-30T21:17:03.868Z,18.10
2019-05-30T21:19:32.127Z,18.10
2019-05-30T21:22:00.395Z,18.10
2019-05-30T21:24:28.756Z,18.10
2019-05-30T21:26:57.051Z,18.00
2019-05-30T21:29:25.377Z,18.00
2019-05-30T21:31:53.707Z,18.00
2019-05-30T21:34:21.986Z,18.10
2019-05-30T21:36:50.355Z,18.10
2019-05-30T21:39:18.647Z,18.00
2019-05-30T21:41:46.967Z,18.00
2019-05-30T21:44:15.306Z,18.00
2019-05-30T21:46:44.749Z,18.00
2019-05-30T21:49:13.125Z,18.00
2019-05-30T21:51:41.560Z,18.00
2019-05-30T21:54:09.869Z,18.00
2019-05-30T21:56:38.153Z,18.00
2019-05-30T21:59:06.444Z,18.00
2019-05-30T22:01:34.860Z,17.90
2019-05-30T22:04:03.129Z,17.90
2019-05-30T22:06:31.414Z,18.00
2019-05-30T22:09:03.210Z,17.90
2019-05-30T22:11:29.658Z,17.90
2019-05-30T22:13:58.028Z,17.90
2019-05-30T22:16:26.294Z,17.90
2019-05-30T22:18:54.552Z,17.80
2019-05-30T22:21:22.832Z,17.80
2019-05-30T22:23:52.396Z,17.80
2019-05-30T22:26:20.889Z,17.80
2019-05-30T22:28:50.194Z,17.80
2019-05-30T22:31:18.822Z,17.80
2019-05-30T22:33:47.140Z,17.80
2019-05-30T22:36:15.575Z,17.80
2019-05-30T22:38:44.840Z,17.80
2019-05-30T22:41:13.167Z,17.70
2019-05-30T22:43:41.441Z,17.70
2019-05-30T22:46:09.699Z,17.70
2019-05-30T22:48:37.962Z,17.80
2019-05-30T22:51:10.036Z,17.70
2019-05-30T22:53:38.389Z,17.70
2019-05-30T22:56:06.644Z,17.70
2019-05-30T22:58:34.919Z,17.60
2019-05-30T23:01:03.184Z,17.60
2019-05-30T23:03:31.480Z,17.60
2019-05-30T23:05:59.813Z,17.60
2019-05-30T23:08:28.068Z,17.60
2019-05-30T23:10:56.336Z,17.60
2019-05-30T23:13:37.737Z,17.60
2019-05-30T23:15:54.677Z,17.60
2019-05-30T23:18:23.016Z,17.50
2019-05-30T23:20:51.288Z,17.50
2019-05-30T23:23:19.552Z,17.50
2019-05-30T23:25:47.816Z,17.50
2019-05-30T23:28:16.185Z,17.50
2019-05-30T23:30:44.448Z,17.50
2019-05-30T23:33:12.710Z,17.50
2019-05-30T23:35:40.989Z,17.50
2019-05-30T23:38:09.241Z,17.40
2019-05-30T23:40:37.595Z,17.40
2019-05-30T23:43:05.875Z,17.40
2019-05-30T23:45:34.142Z,17.40
2019-05-30T23:48:02.402Z,17.30
2019-05-30T23:50:30.692Z,17.20
2019-05-30T23:52:58.955Z,17.30
2019-05-30T23:55:27.225Z,17.30
2019-05-30T23:57:56.553Z,17.30
